Ashaiiu, Virginia
Current Conditions -  °F | °C
As of 7:54 PM on Tuesday 27 Jan 2015 (Local Time) from KOFP Reporting Station
Broken Clouds Broken Clouds  
Wind Chill: 25°   Ceiling: 10000
Heat Index: 32°   Visibility: 10mi
Dew Point: 22°   Wind: 8mph
Humidity: 66%   Direction: 330°NNW
Pressure: 29.91"   Gusts: NA
Location:  37.7534°N, 77.495°W
Report Text: KOFP 280054Z AUTO 33007KT 10SM BKN100 00/M06 A2991 RMK AO2 SLP129 T00001056
Loading
Personal Weather Stations






























Interactive Weather Map New forecast layout! Learn more

10-Day Weather Forecast

Advertisements
Track Severe Weather on mobile